Time;durP1;ratioP1;P1;durP2;ratioP2;P2;SDS_P1;SDS_P2;PMS_P1;PMS_P2;Temp;Humidity;BMP_temperature;BMP_pressure;BME280_temperature;BME280_humidity;BME280_pressure;Samples;Min_cycle;Max_cycle;Signal;HPM_P1;HPM_P2
2022/09/13 00:01:59;;;;;;;5.70;3.25;;;16.10;1.00;;;;;;7367537;19;20018;-65
2022/09/13 00:04:29;;;;;;;9.43;2.78;;;16.10;1.00;;;;;;7367846;19;20568;-63
2022/09/13 00:06:59;;;;;;;4.40;3.30;;;16.10;1.00;;;;;;7366541;19;20373;-64
2022/09/13 00:09:28;;;;;;;5.00;3.15;;;16.10;1.00;;;;;;7362019;19;20010;-65
2022/09/13 00:12:01;;;;;;;4.10;3.10;;;16.10;1.00;;;;;;7367595;19;20534;-64
2022/09/13 00:14:30;;;;;;;3.75;3.05;;;16.00;1.00;;;;;;7388595;19;20018;-65
2022/09/13 00:17:00;;;;;;;4.75;3.00;;;16.00;1.00;;;;;;7366457;19;20042;-65
2022/09/13 00:19:30;;;;;;;4.18;3.17;;;16.10;1.00;;;;;;7363445;19;20021;-65
2022/09/13 00:22:00;;;;;;;4.38;3.40;;;16.10;1.00;;;;;;7366210;19;20034;-65
2022/09/13 00:24:30;;;;;;;4.40;3.03;;;16.10;1.00;;;;;;7366556;19;20039;-65
2022/09/13 00:27:02;;;;;;;3.95;2.92;;;16.10;1.00;;;;;;7365532;19;20025;-65
2022/09/13 00:29:32;;;;;;;3.85;2.83;;;16.00;1.00;;;;;;7385421;19;20032;-65
2022/09/13 00:32:02;;;;;;;2.90;2.55;;;16.00;1.00;;;;;;7367579;19;20011;-65
2022/09/13 00:34:32;;;;;;;3.10;2.80;;;16.00;1.00;;;;;;7364747;19;20006;-65
2022/09/13 00:37:01;;;;;;;3.85;3.08;;;16.00;1.00;;;;;;7364722;19;20355;-64
2022/09/13 00:39:32;;;;;;;4.30;3.22;;;16.00;1.00;;;;;;7363359;19;20019;-64
2022/09/13 00:42:04;;;;;;;4.85;3.40;;;16.00;1.00;;;;;;7365508;19;20010;-64
2022/09/13 00:44:56;;;;;;;4.70;3.63;;;15.90;1.00;;;;;;7385311;19;20015;-67
2022/09/13 00:47:33;;;;;;;3.70;3.00;;;15.90;1.00;;;;;;7385031;19;20428;-64
2022/09/13 00:50:08;;;;;;;4.47;3.35;;;15.90;1.00;;;;;;7366845;19;20014;-63
2022/09/13 00:52:41;;;;;;;4.22;3.50;;;15.80;1.00;;;;;;7366513;19;20019;-64
2022/09/13 00:55:20;;;;;;;4.45;3.58;;;15.80;1.00;;;;;;7364079;19;20473;-65
2022/09/13 00:57:54;;;;;;;5.22;3.10;;;15.80;1.00;;;;;;7360975;19;20010;-65
2022/09/13 01:00:24;;;;;;;3.60;3.05;;;15.80;1.00;;;;;;7368446;19;20474;-65
2022/09/13 01:02:58;;;;;;;4.78;3.00;;;15.80;1.00;;;;;;7367197;19;20010;-65
2022/09/13 01:05:38;;;;;;;4.20;3.22;;;15.80;1.00;;;;;;7385039;19;20514;-65
2022/09/13 01:08:14;;;;;;;4.60;3.38;;;15.80;1.00;;;;;;7360860;19;20394;-64
2022/09/13 01:10:46;;;;;;;6.35;3.35;;;15.70;1.00;;;;;;7367189;19;21463;-65
2022/09/13 01:13:21;;;;;;;7.03;3.63;;;15.70;1.00;;;;;;7365559;19;20021;-64
2022/09/13 01:15:51;;;;;;;6.72;3.47;;;15.70;1.00;;;;;;7364624;19;20021;-64
2022/09/13 01:18:22;;;;;;;4.55;3.53;;;15.80;1.00;;;;;;7362176;19;20416;-65
2022/09/13 01:21:36;;;;;;;5.97;3.38;;;15.70;1.00;;;;;;7366477;19;20018;-64
2022/09/13 01:24:38;;;;;;;6.75;3.50;;;15.70;1.00;;;;;;7364455;19;20011;-65
2022/09/13 01:27:37;;;;;;;6.80;3.50;;;15.70;1.00;;;;;;7363993;19;20014;-64
2022/09/13 01:30:13;;;;;;;5.90;3.67;;;15.70;1.00;;;;;;7366341;19;20025;-65
2022/09/13 01:33:07;;;;;;;6.43;3.78;;;15.70;1.00;;;;;;7365484;19;20019;-65
2022/09/13 01:35:48;;;;;;;4.30;3.55;;;15.70;1.00;;;;;;7363911;19;20006;-65
2022/09/13 01:38:40;;;;;;;4.25;3.22;;;15.60;1.00;;;;;;7382614;19;20015;-65
2022/09/13 01:41:23;;;;;;;5.30;3.80;;;15.50;1.00;;;;;;7365788;19;20347;-64
2022/09/13 01:43:59;;;;;;;4.40;3.60;;;15.40;1.00;;;;;;7364454;19;20011;-64
2022/09/13 01:46:39;;;;;;;5.00;3.50;;;15.30;1.00;;;;;;7361611;19;20462;-65
2022/09/13 01:49:18;;;;;;;5.78;3.70;;;15.30;2.30;;;;;;7360896;19;20010;-65
2022/09/13 01:51:52;;;;;;;4.82;3.80;;;15.20;2.00;;;;;;7366783;19;20671;-64
2022/09/13 01:54:31;;;;;;;6.03;4.13;;;15.20;2.60;;;;;;7366571;19;20482;-65
2022/09/13 01:57:07;;;;;;;7.18;4.15;;;15.20;2.50;;;;;;7362562;19;20486;-64
2022/09/13 01:59:44;;;;;;;4.72;3.90;;;15.10;3.00;;;;;;7360488;19;20018;-65
2022/09/13 02:02:20;;;;;;;7.15;4.35;;;15.00;3.70;;;;;;7385991;19;20112;-64
2022/09/13 02:04:55;;;;;;;5.80;4.10;;;15.00;5.10;;;;;;7361240;19;20017;-64
2022/09/13 02:07:32;;;;;;;7.40;3.85;;;15.00;4.30;;;;;;7360883;19;20007;-64
2022/09/13 02:10:06;;;;;;;6.22;3.65;;;15.00;5.10;;;;;;7364453;19;20022;-64
2022/09/13 02:12:39;;;;;;;6.20;3.92;;;15.00;5.20;;;;;;7365631;19;20007;-64
2022/09/13 02:15:13;;;;;;;5.82;4.25;;;14.90;6.30;;;;;;7362642;19;20062;-64
2022/09/13 02:17:49;;;;;;;8.77;4.43;;;14.90;6.60;;;;;;7358177;19;20015;-64
2022/09/13 02:20:23;;;;;;;6.55;4.15;;;14.90;6.70;;;;;;7386243;19;20526;-64
2022/09/13 02:22:57;;;;;;;6.78;4.07;;;14.90;6.20;;;;;;7363965;19;20010;-64
2022/09/13 02:25:29;;;;;;;5.10;4.30;;;14.90;6.40;;;;;;7360830;19;20017;-64
2022/09/13 02:28:03;;;;;;;6.93;4.93;;;14.90;6.40;;;;;;7358992;19;20046;-64
2022/09/13 02:30:37;;;;;;;8.18;4.22;;;14.90;6.40;;;;;;7364432;19;20014;-64
2022/09/13 02:33:14;;;;;;;5.78;4.65;;;14.90;6.60;;;;;;7363873;19;20572;-64
2022/09/13 02:35:50;;;;;;;6.47;4.75;;;15.00;6.60;;;;;;7360816;19;20683;-64
2022/09/13 02:38:24;;;;;;;6.63;5.30;;;15.00;6.70;;;;;;7381017;19;20042;-64
2022/09/13 02:41:00;;;;;;;7.32;5.20;;;14.90;7.10;;;;;;7364488;19;20553;-64
2022/09/13 02:43:36;;;;;;;8.70;4.80;;;14.90;7.10;;;;;;7361909;19;20565;-64
2022/09/13 02:46:23;;;;;;;6.95;4.68;;;14.90;7.40;;;;;;7360538;19;20021;-64
2022/09/13 02:49:01;;;;;;;5.53;4.60;;;14.80;8.10;;;;;;7359694;19;20018;-64
2022/09/13 02:51:35;;;;;;;7.50;4.95;;;14.80;9.60;;;;;;7363762;19;20031;-64
2022/09/13 02:54:17;;;;;;;8.80;5.15;;;14.70;9.30;;;;;;7364348;19;20014;-64
2022/09/13 02:56:55;;;;;;;8.57;5.35;;;14.70;10.10;;;;;;7358359;19;20054;-64
2022/09/13 02:59:26;;;;;;;8.32;5.18;;;14.70;10.50;;;;;;7380097;19;20297;-64
2022/09/13 03:02:00;;;;;;;11.88;5.88;;;14.70;10.80;;;;;;7363779;19;20017;-64
2022/09/13 03:04:35;;;;;;;8.27;5.45;;;14.70;10.50;;;;;;7361029;19;20478;-64
2022/09/13 03:07:06;;;;;;;12.07;5.95;;;14.70;10.80;;;;;;7361043;19;20015;-64
2022/09/13 03:09:36;;;;;;;7.18;5.32;;;14.70;11.00;;;;;;7359358;19;20011;-64
2022/09/13 03:12:35;;;;;;;7.85;5.13;;;14.70;11.00;;;;;;7362966;19;20071;-64
2022/09/13 03:15:12;;;;;;;9.75;5.32;;;14.70;11.00;;;;;;7361911;19;20017;-64
2022/09/13 03:17:54;;;;;;;11.77;4.95;;;14.80;10.60;;;;;;7356415;19;20026;-64
2022/09/13 03:20:39;;;;;;;6.53;4.55;;;14.80;11.00;;;;;;7386249;19;20446;-64
2022/09/13 03:23:35;;;;;;;7.50;5.20;;;14.70;11.00;;;;;;7362114;19;20373;-65
2022/09/13 03:26:26;;;;;;;6.93;4.88;;;14.60;10.90;;;;;;7359468;19;20014;-64
2022/09/13 03:29:10;;;;;;;9.55;4.90;;;14.70;11.20;;;;;;7358646;19;20015;-65
2022/09/13 03:31:50;;;;;;;7.10;4.90;;;14.60;11.40;;;;;;7363657;19;20018;-65
2022/09/13 03:34:31;;;;;;;5.28;4.07;;;14.60;11.90;;;;;;7361738;19;20028;-64
2022/09/13 03:37:10;;;;;;;6.50;4.65;;;14.60;11.70;;;;;;7359830;19;20006;-64
2022/09/13 03:39:45;;;;;;;8.02;5.10;;;14.60;12.60;;;;;;7358477;19;20014;-65
2022/09/13 03:42:21;;;;;;;7.38;4.78;;;14.60;12.40;;;;;;7362434;19;20045;-64
2022/09/13 03:44:54;;;;;;;6.28;5.05;;;14.60;12.70;;;;;;7360219;19;20026;-64
2022/09/13 03:47:26;;;;;;;8.18;5.25;;;14.50;13.30;;;;;;7378771;19;20025;-65
2022/09/13 03:49:58;;;;;;;8.50;5.25;;;14.50;13.20;;;;;;7360310;19;20011;-64
2022/09/13 03:52:31;;;;;;;7.78;5.43;;;14.50;13.40;;;;;;7362392;19;20034;-64
2022/09/13 03:55:01;;;;;;;9.30;5.57;;;14.50;14.60;;;;;;7357349;19;20014;-63
2022/09/13 03:57:31;;;;;;;10.10;5.88;;;14.40;15.60;;;;;;7363744;19;20503;-64
2022/09/13 04:00:01;;;;;;;8.82;5.60;;;14.30;15.20;;;;;;7367572;19;20014;-63
2022/09/13 04:02:31;;;;;;;8.80;4.78;;;14.20;16.20;;;;;;7390144;19;20018;-63
2022/09/13 04:05:01;;;;;;;6.18;4.20;;;14.10;16.90;;;;;;7367003;19;20007;-64
2022/09/13 04:07:34;;;;;;;6.80;4.72;;;14.10;17.80;;;;;;7362194;19;20021;-63
2022/09/13 04:10:03;;;;;;;7.13;4.93;;;13.90;17.70;;;;;;7366609;19;20029;-63
2022/09/13 04:12:34;;;;;;;6.97;4.78;;;13.80;18.40;;;;;;7369269;19;20014;-64
2022/09/13 04:15:04;;;;;;;7.32;4.97;;;13.80;19.40;;;;;;7366625;19;20025;-64
2022/09/13 04:17:33;;;;;;;7.85;5.10;;;13.70;20.40;;;;;;7383690;19;20011;-64
2022/09/13 04:20:04;;;;;;;6.57;5.05;;;13.70;21.10;;;;;;7366145;19;20051;-64
2022/09/13 04:22:36;;;;;;;6.80;4.38;;;13.80;21.30;;;;;;7368455;19;20007;-64
2022/09/13 04:25:07;;;;;;;8.73;5.53;;;13.80;21.50;;;;;;7364717;19;20017;-64
2022/09/13 04:27:37;;;;;;;8.02;5.80;;;13.90;21.80;;;;;;7363293;19;20494;-64
2022/09/13 04:30:08;;;;;;;12.05;5.50;;;14.00;22.20;;;;;;7366378;19;20014;-64
2022/09/13 04:32:38;;;;;;;9.52;6.10;;;14.10;21.00;;;;;;7368744;19;20494;-65
2022/09/13 04:35:09;;;;;;;12.10;5.95;;;14.20;20.70;;;;;;7386802;19;20470;-64
2022/09/13 04:37:43;;;;;;;8.70;6.45;;;14.30;19.40;;;;;;7361347;19;20418;-64
2022/09/13 04:40:13;;;;;;;11.18;5.78;;;14.30;18.40;;;;;;7365406;19;20010;-64
2022/09/13 04:42:45;;;;;;;11.25;6.00;;;14.40;18.00;;;;;;7368828;19;20010;-64
2022/09/13 04:45:14;;;;;;;9.02;5.95;;;14.40;17.90;;;;;;7366127;19;20014;-64
2022/09/13 04:47:44;;;;;;;11.48;6.57;;;14.50;18.50;;;;;;7360711;19;20014;-63
2022/09/13 04:50:14;;;;;;;10.75;5.80;;;14.50;17.60;;;;;;7384621;19;20436;-63
2022/09/13 04:52:46;;;;;;;9.90;5.22;;;14.50;16.90;;;;;;7367413;19;20007;-63
2022/09/13 04:55:16;;;;;;;14.18;6.00;;;14.50;17.00;;;;;;7363171;19;20019;-64
2022/09/13 04:57:46;;;;;;;11.65;5.53;;;14.50;17.40;;;;;;7363109;19;20279;-64
2022/09/13 05:00:16;;;;;;;10.70;6.45;;;14.50;16.90;;;;;;7365052;19;20006;-64
2022/09/13 05:02:46;;;;;;;10.82;5.95;;;14.50;16.50;;;;;;7366656;19;20670;-65
2022/09/13 05:05:16;;;;;;;8.75;5.55;;;14.60;16.60;;;;;;7386270;19;20475;-64
2022/09/13 05:07:51;;;;;;;7.22;5.20;;;14.60;16.30;;;;;;7359127;19;20014;-65
2022/09/13 05:10:21;;;;;;;7.25;5.13;;;14.70;16.40;;;;;;7363728;19;20010;-65
2022/09/13 05:12:51;;;;;;;7.53;4.88;;;14.70;16.40;;;;;;7366824;19;21338;-65
2022/09/13 05:15:21;;;;;;;12.75;5.40;;;14.80;15.70;;;;;;7364112;19;20432;-64
2022/09/13 05:17:50;;;;;;;7.43;4.90;;;14.80;15.50;;;;;;7360729;19;20102;-64
2022/09/13 05:20:20;;;;;;;7.93;5.00;;;15.00;14.50;;;;;;7386805;19;20134;-64
2022/09/13 05:22:52;;;;;;;7.53;4.65;;;16.00;5.50;;;;;;7365469;19;20003;-65
2022/09/13 05:25:22;;;;;;;8.63;5.07;;;16.80;1.00;;;;;;7361810;19;20507;-65
2022/09/13 05:27:54;;;;;;;7.20;4.70;;;16.70;1.10;;;;;;7361038;19;20015;-65
2022/09/13 05:30:24;;;;;;;9.27;5.03;;;15.90;4.30;;;;;;7363752;19;20019;-64
2022/09/13 05:32:54;;;;;;;11.50;5.55;;;15.60;6.50;;;;;;7365859;19;20022;-65
2022/09/13 05:35:24;;;;;;;8.75;4.70;;;15.40;9.30;;;;;;7385264;19;20017;-64
2022/09/13 05:37:56;;;;;;;8.60;4.75;;;15.40;10.00;;;;;;7358340;19;20011;-66
2022/09/13 05:40:26;;;;;;;8.60;5.10;;;15.40;9.90;;;;;;7365556;19;20006;-64
2022/09/13 05:42:56;;;;;;;5.57;4.68;;;15.40;9.60;;;;;;7360757;19;20014;-64
2022/09/13 05:45:26;;;;;;;8.50;4.60;;;15.30;9.30;;;;;;7359521;19;20014;-64
2022/09/13 05:47:55;;;;;;;9.05;4.95;;;15.30;9.50;;;;;;7357589;19;20024;-63
2022/09/13 05:50:25;;;;;;;8.40;5.03;;;15.40;9.70;;;;;;7386034;19;20015;-64
2022/09/13 05:53:18;;;;;;;10.27;4.32;;;15.30;10.10;;;;;;7363798;19;20010;-64
2022/09/13 05:55:47;;;;;;;6.65;4.30;;;15.40;9.90;;;;;;7363338;19;20030;-63
2022/09/13 05:58:17;;;;;;;6.78;4.53;;;15.30;9.00;;;;;;7359503;19;20115;-64
2022/09/13 06:00:47;;;;;;;9.40;4.78;;;15.40;9.70;;;;;;7363160;19;20035;-64
2022/09/13 06:03:17;;;;;;;8.57;4.18;;;15.60;9.10;;;;;;7362674;19;20021;-64
2022/09/13 06:05:46;;;;;;;9.20;5.20;;;15.60;7.90;;;;;;7362546;19;20022;-63
2022/09/13 06:08:19;;;;;;;8.25;4.60;;;15.70;7.20;;;;;;7380255;19;20591;-65
2022/09/13 06:10:56;;;;;;;7.25;4.53;;;15.80;7.20;;;;;;7363587;19;20014;-63
2022/09/13 06:13:27;;;;;;;9.60;4.65;;;15.90;7.10;;;;;;7362895;19;20486;-64
2022/09/13 06:15:58;;;;;;;8.15;4.53;;;16.00;6.70;;;;;;7360599;19;20014;-65
2022/09/13 06:18:29;;;;;;;8.77;4.50;;;16.10;6.20;;;;;;7358948;19;20013;-65
2022/09/13 06:21:03;;;;;;;8.00;4.68;;;16.10;5.00;;;;;;7364351;19;20439;-65
2022/09/13 06:23:35;;;;;;;;;;;16.10;4.40;;;;;;7384772;19;20344;-63
2022/09/13 06:26:07;;;;;;;4.75;3.75;;;16.00;4.40;;;;;;7360413;19;20014;-64
2022/09/13 06:28:38;;;;;;;10.90;4.88;;;16.00;5.40;;;;;;7359053;19;20094;-64
2022/09/13 06:31:11;;;;;;;9.00;4.70;;;16.00;5.40;;;;;;7362998;19;20006;-64
2022/09/13 06:33:42;;;;;;;5.60;4.70;;;16.00;6.00;;;;;;7363424;19;20006;-64
2022/09/13 06:36:14;;;;;;;8.48;4.70;;;16.00;6.10;;;;;;7358307;19;20485;-64
2022/09/13 06:38:47;;;;;;;7.65;4.60;;;16.10;6.00;;;;;;7358258;19;20018;-64
2022/09/13 06:41:19;;;;;;;14.85;5.30;;;16.20;6.00;;;;;;7384047;19;20542;-65
2022/09/13 06:43:49;;;;;;;6.50;4.72;;;16.30;5.40;;;;;;7359630;19;20010;-65
2022/09/13 06:46:21;;;;;;;8.38;4.63;;;16.20;4.70;;;;;;7357251;19;20011;-64
2022/09/13 06:48:54;;;;;;;9.63;4.57;;;16.60;4.80;;;;;;7359943;19;20033;-64
2022/09/13 06:51:28;;;;;;;16.02;5.00;;;16.60;1.80;;;;;;7365224;19;20014;-64
2022/09/13 06:54:02;;;;;;;7.78;4.47;;;16.70;2.40;;;;;;7361288;19;20498;-64
2022/09/13 06:56:34;;;;;;;6.03;4.30;;;16.90;1.00;;;;;;7379653;19;20340;-64
2022/09/13 06:59:06;;;;;;;7.72;4.80;;;17.10;1.00;;;;;;7359860;19;20025;-63
2022/09/13 07:01:37;;;;;;;12.00;4.45;;;17.10;1.00;;;;;;7362652;19;20482;-64
2022/09/13 07:04:09;;;;;;;6.30;4.60;;;17.30;1.00;;;;;;7363916;19;20014;-65
2022/09/13 07:06:40;;;;;;;9.60;3.90;;;17.40;1.00;;;;;;7357345;19;20020;-64
2022/09/13 07:09:14;;;;;;;7.47;5.18;;;17.70;1.00;;;;;;7359248;19;20035;-64
2022/09/13 07:11:45;;;;;;;6.15;4.10;;;17.60;1.00;;;;;;7364601;19;20070;-63
2022/09/13 07:14:17;;;;;;;9.77;5.05;;;17.50;1.00;;;;;;7382966;19;20014;-64
2022/09/13 07:16:47;;;;;;;9.48;4.85;;;17.70;1.00;;;;;;7356827;19;20014;-64
2022/09/13 07:19:19;;;;;;;8.90;4.53;;;17.80;1.00;;;;;;7358296;19;20010;-65
2022/09/13 07:21:48;;;;;;;5.55;3.78;;;17.80;1.00;;;;;;7363681;19;20029;-65
2022/09/13 07:24:22;;;;;;;9.27;4.85;;;17.90;1.00;;;;;;7360790;19;20003;-64
2022/09/13 07:26:52;;;;;;;6.43;4.00;;;17.90;1.00;;;;;;7357719;19;20366;-64
2022/09/13 07:29:25;;;;;;;9.48;4.53;;;18.00;1.00;;;;;;7377572;19;20033;-64
2022/09/13 07:31:57;;;;;;;6.53;4.53;;;17.90;1.00;;;;;;7369094;19;20525;-64
2022/09/13 07:34:28;;;;;;;11.00;4.60;;;18.00;1.00;;;;;;7367958;19;20014;-64
2022/09/13 07:36:58;;;;;;;6.43;4.15;;;18.10;1.00;;;;;;7364610;19;20020;-65
2022/09/13 07:39:30;;;;;;;8.90;4.50;;;18.20;1.00;;;;;;7363765;19;20002;-63
2022/09/13 07:42:00;;;;;;;9.95;4.55;;;18.50;1.00;;;;;;7370433;19;20018;-64
2022/09/13 07:44:30;;;;;;;14.93;10.20;;;18.90;1.00;;;;;;7388377;19;20018;-63
2022/09/13 07:47:00;;;;;;;5.97;4.15;;;19.10;1.00;;;;;;7366021;19;20047;-65
2022/09/13 07:49:29;;;;;;;8.50;4.57;;;19.40;1.00;;;;;;7364547;19;20010;-64
2022/09/13 07:51:59;;;;;;;9.63;3.67;;;19.40;1.00;;;;;;7364214;19;20010;-64
2022/09/13 07:54:34;;;;;;;8.23;4.25;;;19.60;1.00;;;;;;7365821;19;20185;-65
2022/09/13 07:57:04;;;;;;;6.00;3.72;;;19.80;1.00;;;;;;7361874;19;20018;-64
2022/09/13 07:59:33;;;;;;;5.10;3.72;;;19.50;1.00;;;;;;7383472;19;20420;-65
2022/09/13 08:02:03;;;;;;;7.65;3.65;;;19.50;1.00;;;;;;7367581;19;20534;-66
2022/09/13 08:04:33;;;;;;;7.50;3.70;;;19.60;1.00;;;;;;7363015;19;20011;-64
2022/09/13 08:07:05;;;;;;;5.47;3.47;;;19.70;1.00;;;;;;7363693;19;20038;-65
2022/09/13 08:09:37;;;;;;;5.07;3.60;;;20.00;1.00;;;;;;7363943;19;20010;-64
2022/09/13 08:12:07;;;;;;;6.43;3.92;;;20.20;1.00;;;;;;7368359;19;20462;-64
2022/09/13 08:14:37;;;;;;;5.78;3.97;;;20.30;1.00;;;;;;7361648;19;20082;-65
2022/09/13 08:17:08;;;;;;;12.07;3.55;;;20.40;1.00;;;;;;7384416;19;20458;-65
2022/09/13 08:19:38;;;;;;;5.72;3.47;;;20.40;1.00;;;;;;7362492;19;20026;-65
2022/09/13 08:22:07;;;;;;;9.98;3.40;;;20.50;1.00;;;;;;7368242;19;20034;-64
2022/09/13 08:24:40;;;;;;;4.43;2.83;;;20.50;1.00;;;;;;7362170;19;20010;-65
2022/09/13 08:27:09;;;;;;;10.43;3.35;;;20.80;1.00;;;;;;7362017;19;20571;-64
2022/09/13 08:29:39;;;;;;;5.18;3.22;;;20.70;1.00;;;;;;7360839;19;20006;-65
2022/09/13 08:32:09;;;;;;;4.60;3.08;;;20.90;1.00;;;;;;7388798;19;20391;-65
2022/09/13 08:34:39;;;;;;;4.18;2.45;;;21.10;1.00;;;;;;7360308;19;20013;-65
2022/09/13 08:37:10;;;;;;;4.22;2.70;;;21.60;1.00;;;;;;7360058;19;20470;-64
2022/09/13 08:39:42;;;;;;;5.10;2.83;;;21.40;1.00;;;;;;7362373;19;20475;-65
2022/09/13 08:42:26;;;;;;;5.57;2.70;;;21.60;1.00;;;;;;7356983;19;20010;-66
2022/09/13 08:44:57;;;;;;;4.53;2.73;;;21.60;1.00;;;;;;7353033;19;20000;-65
2022/09/13 08:47:40;;;;;;;9.52;2.92;;;21.30;1.00;;;;;;7374500;19;20294;-64
2022/09/13 08:50:17;;;;;;;6.20;2.90;;;21.30;1.00;;;;;;7352234;19;20026;-65
2022/09/13 08:52:56;;;;;;;10.38;2.95;;;21.20;1.00;;;;;;7356902;19;20014;-65
2022/09/13 08:55:39;;;;;;;4.30;2.63;;;21.20;1.00;;;;;;7351003;19;20006;-64
2022/09/13 08:58:26;;;;;;;7.00;3.13;;;21.40;1.00;;;;;;7352992;19;20046;-64
2022/09/13 09:01:05;;;;;;;3.78;2.50;;;21.70;1.00;;;;;;7355947;19;20022;-65
2022/09/13 09:03:43;;;;;;;8.45;2.15;;;21.80;1.00;;;;;;7355175;19;20011;-65
2022/09/13 09:06:16;;;;;;;4.00;2.67;;;22.20;1.00;;;;;;7350010;19;20057;-64
2022/09/13 09:08:50;;;;;;;4.10;2.53;;;22.30;1.00;;;;;;7351362;19;20029;-66
2022/09/13 09:11:32;;;;;;;3.10;2.40;;;22.10;1.00;;;;;;7378693;19;20022;-65
2022/09/13 09:14:08;;;;;;;4.32;2.33;;;22.30;1.00;;;;;;7354433;19;20486;-64
2022/09/13 09:16:42;;;;;;;3.00;2.45;;;22.10;1.00;;;;;;7349761;19;20018;-65
2022/09/13 09:19:21;;;;;;;5.25;2.70;;;22.10;1.00;;;;;;7350381;19;20474;-65
2022/09/13 09:21:52;;;;;;;4.38;2.88;;;21.80;1.00;;;;;;7355481;19;20018;-65
2022/09/13 09:24:25;;;;;;;3.45;2.70;;;22.00;1.00;;;;;;7353577;19;20051;-65
2022/09/13 09:26:59;;;;;;;4.40;2.90;;;21.90;1.00;;;;;;7349930;19;20019;-65
2022/09/13 09:29:33;;;;;;;5.35;2.63;;;21.90;1.00;;;;;;7369770;19;20018;-65
2022/09/13 09:32:14;;;;;;;4.57;2.50;;;22.00;1.00;;;;;;7353054;19;20011;-64
2022/09/13 09:34:57;;;;;;;3.60;2.13;;;22.50;1.00;;;;;;7349494;19;20021;-64
2022/09/13 09:37:30;;;;;;;4.00;2.10;;;22.50;1.00;;;;;;7350373;19;20014;-65
2022/09/13 09:40:05;;;;;;;5.32;2.42;;;22.50;1.00;;;;;;7349108;19;20042;-65
2022/09/13 09:42:43;;;;;;;4.03;2.30;;;22.60;1.00;;;;;;7355026;19;20042;-65
2022/09/13 09:45:27;;;;;;;4.68;1.98;;;22.70;1.00;;;;;;7349459;19;20019;-65
2022/09/13 09:48:05;;;;;;;2.90;2.40;;;22.80;1.00;;;;;;7352159;19;20018;-65
2022/09/13 09:50:42;;;;;;;2.75;2.40;;;22.60;1.00;;;;;;7367416;19;20111;-66
2022/09/13 09:53:15;;;;;;;2.70;2.10;;;22.60;1.00;;;;;;7374753;19;20042;-65
2022/09/13 09:55:50;;;;;;;9.85;2.72;;;22.80;1.00;;;;;;7348855;19;20014;-66
2022/09/13 09:58:39;;;;;;;6.45;2.50;;;23.00;1.00;;;;;;7348830;19;20018;-65
2022/09/13 10:01:20;;;;;;;4.35;2.40;;;23.10;1.00;;;;;;7352242;19;20370;-65
2022/09/13 10:04:00;;;;;;;5.03;2.28;;;23.20;1.00;;;;;;7352492;19;20042;-64
2022/09/13 10:06:30;;;;;;;3.53;2.00;;;23.60;1.00;;;;;;7345717;19;20010;-64
2022/09/13 10:09:02;;;;;;;3.20;1.90;;;23.50;1.00;;;;;;7348638;19;20014;-65
2022/09/13 10:11:45;;;;;;;5.72;2.80;;;23.30;1.00;;;;;;7375064;19;20036;-65
2022/09/13 10:14:47;;;;;;;2.63;2.17;;;23.50;1.00;;;;;;7352054;19;20019;-64
2022/09/13 10:17:22;;;;;;;2.65;1.70;;;23.70;1.00;;;;;;7349377;19;20014;-65
2022/09/13 10:19:58;;;;;;;3.17;1.67;;;23.70;1.00;;;;;;7347488;19;20011;-65
2022/09/13 10:22:28;;;;;;;2.40;1.58;;;24.20;1.00;;;;;;7355727;19;20014;-64
2022/09/13 10:25:16;;;;;;;2.75;1.60;;;24.30;1.00;;;;;;7349876;19;20002;-65
2022/09/13 10:27:51;;;;;;;4.85;1.80;;;24.30;1.00;;;;;;7349036;19;20014;-66
2022/09/13 10:30:35;;;;;;;3.45;1.35;;;24.60;1.00;;;;;;7348440;19;20360;-66
2022/09/13 10:33:07;;;;;;;2.03;1.60;;;24.90;1.00;;;;;;7354042;19;20011;-65
2022/09/13 10:35:36;;;;;;;2.28;1.60;;;25.00;1.00;;;;;;7356888;19;20394;-65
2022/09/13 10:38:06;;;;;;;2.55;1.70;;;25.10;1.00;;;;;;7381549;19;20010;-65
2022/09/13 10:40:38;;;;;;;2.47;1.25;;;24.90;1.00;;;;;;7358559;19;20023;-66
2022/09/13 10:43:18;;;;;;;5.80;1.88;;;25.00;1.00;;;;;;7361769;19;20007;-65
2022/09/13 10:45:54;;;;;;;3.83;1.33;;;25.20;1.00;;;;;;7355825;19;20007;-66
2022/09/13 10:48:24;;;;;;;3.42;1.80;;;25.50;1.00;;;;;;7359298;19;20015;-66
2022/09/13 10:51:06;;;;;;;3.78;1.65;;;25.90;1.00;;;;;;7360692;19;20462;-65
2022/09/13 10:53:39;;;;;;;2.78;1.50;;;25.80;1.00;;;;;;7375126;19;20010;-66
2022/09/13 10:56:22;;;;;;;2.75;1.50;;;25.70;1.00;;;;;;7375294;19;20171;-65
2022/09/13 10:58:52;;;;;;;2.05;1.00;;;26.10;1.00;;;;;;7356917;19;20018;-65
2022/09/13 11:01:39;;;;;;;1.23;1.05;;;25.80;1.00;;;;;;7361247;19;20030;-65
2022/09/13 11:04:39;;;;;;;2.17;0.90;;;25.40;1.00;;;;;;7359002;19;20086;-65
2022/09/13 11:07:31;;;;;;;2.47;1.15;;;25.80;1.00;;;;;;7365544;19;20470;-65
2022/09/13 11:10:08;;;;;;;2.75;1.00;;;25.80;1.00;;;;;;7363847;19;20014;-65
2022/09/13 11:12:45;;;;;;;4.45;1.35;;;26.10;1.00;;;;;;7368900;19;20450;-65
2022/09/13 11:15:27;;;;;;;1.80;0.98;;;26.60;1.00;;;;;;7363691;19;20011;-65
2022/09/13 11:18:21;;;;;;;1.98;1.00;;;26.90;1.00;;;;;;7365044;19;20551;-64
2022/09/13 11:20:59;;;;;;;1.20;1.10;;;26.50;1.00;;;;;;7368440;19;20022;-66
2022/09/13 11:23:46;;;;;;;6.38;1.10;;;26.20;1.00;;;;;;7387684;19;20015;-64
2022/09/13 11:26:36;;;;;;;4.03;1.20;;;25.50;1.00;;;;;;7359814;19;20015;-65
2022/09/13 11:29:20;;;;;;;2.50;1.02;;;26.00;1.00;;;;;;7363794;19;20099;-65
2022/09/13 11:32:01;;;;;;;1.58;0.85;;;26.00;1.00;;;;;;7367834;19;20010;-66
2022/09/13 11:34:45;;;;;;;1.55;1.10;;;26.00;1.00;;;;;;7364672;19;20548;-65
2022/09/13 11:37:27;;;;;;;3.05;1.30;;;26.30;1.00;;;;;;7364739;19;20038;-66
2022/09/13 11:40:13;;;;;;;3.35;1.10;;;26.60;1.00;;;;;;7363105;19;20485;-65
2022/09/13 11:42:51;;;;;;;2.40;1.10;;;26.50;1.00;;;;;;7366916;19;20025;-65
2022/09/13 11:45:43;;;;;;;1.90;1.17;;;26.50;1.00;;;;;;7363282;19;20017;-65
2022/09/13 11:48:46;;;;;;;2.15;1.10;;;26.70;1.00;;;;;;7362049;19;20033;-66
2022/09/13 11:51:28;;;;;;;4.40;1.02;;;26.60;1.00;;;;;;7367364;19;20006;-65
2022/09/13 11:54:20;;;;;;;1.20;0.90;;;26.80;1.00;;;;;;7365618;19;20046;-65
2022/09/13 11:56:53;;;;;;;1.65;1.10;;;26.80;1.00;;;;;;7359870;19;20019;-66
2022/09/13 11:59:36;;;;;;;2.63;1.17;;;26.80;1.00;;;;;;7384563;19;20375;-66
2022/09/13 12:02:19;;;;;;;1.58;1.00;;;26.80;1.00;;;;;;7368674;19;20466;-65
2022/09/13 12:04:55;;;;;;;3.92;1.15;;;27.00;1.00;;;;;;7360057;19;20059;-65
2022/09/13 12:07:51;;;;;;;3.20;1.17;;;26.40;1.00;;;;;;7362117;19;20011;-64
2022/09/13 12:10:26;;;;;;;3.03;1.02;;;26.80;1.00;;;;;;7362678;19;20010;-65
2022/09/13 12:13:00;;;;;;;1.10;1.00;;;27.10;1.00;;;;;;7367377;19;20013;-66
2022/09/13 12:15:37;;;;;;;1.55;1.10;;;27.30;1.00;;;;;;7361454;19;20014;-65
2022/09/13 12:18:14;;;;;;;2.13;1.00;;;27.30;1.00;;;;;;7363052;19;20011;-65
2022/09/13 12:20:50;;;;;;;3.25;1.10;;;27.30;1.00;;;;;;7362348;19;20114;-65
2022/09/13 12:23:28;;;;;;;0.85;0.85;;;27.20;1.00;;;;;;7387358;19;20015;-65
2022/09/13 12:26:03;;;;;;;1.17;1.05;;;26.90;1.00;;;;;;7361228;19;20042;-64
2022/09/13 12:28:39;;;;;;;1.35;0.90;;;26.70;1.00;;;;;;7360031;19;20031;-64
2022/09/13 12:31:14;;;;;;;1.40;1.17;;;26.70;1.00;;;;;;7368448;19;20354;-64
2022/09/13 12:33:45;;;;;;;2.55;1.00;;;26.60;1.00;;;;;;7367079;19;20430;-65
2022/09/13 12:36:41;;;;;;;1.75;1.13;;;26.50;1.00;;;;;;7362328;19;20007;-65
2022/09/13 12:39:50;;;;;;;2.35;1.10;;;26.40;1.00;;;;;;7362599;19;20083;-65
2022/09/13 12:42:50;;;;;;;2.05;0.80;;;26.60;1.00;;;;;;7366497;19;20007;-64
2022/09/13 12:45:42;;;;;;;3.72;1.30;;;27.00;1.00;;;;;;7359737;19;20029;-65
2022/09/13 12:48:35;;;;;;;2.92;1.20;;;27.00;1.00;;;;;;7363817;19;20134;-65
2022/09/13 12:51:16;;;;;;;2.75;1.33;;;27.10;1.00;;;;;;7366783;19;20010;-65
2022/09/13 12:54:15;;;;;;;3.67;1.55;;;27.30;1.00;;;;;;7366223;19;20018;-66
2022/09/13 12:57:07;;;;;;;5.68;1.40;;;27.50;1.00;;;;;;7357887;19;20018;-65
2022/09/13 13:00:01;;;;;;;2.47;1.10;;;27.20;1.00;;;;;;7363620;19;20018;-65
2022/09/13 13:02:36;;;;;;;2.50;0.93;;;27.30;1.00;;;;;;7391616;19;20018;-66
2022/09/13 13:05:09;;;;;;;3.40;1.60;;;27.20;1.00;;;;;;7360639;19;20015;-65
2022/09/13 13:07:42;;;;;;;3.30;1.15;;;27.40;1.00;;;;;;7361823;19;20018;-64
2022/09/13 13:10:29;;;;;;;0.82;0.70;;;27.50;1.00;;;;;;7359384;19;20027;-65
2022/09/13 13:13:12;;;;;;;4.55;1.13;;;27.50;1.00;;;;;;7364778;19;20018;-64
2022/09/13 13:16:02;;;;;;;0.95;0.80;;;27.30;1.00;;;;;;7359918;19;20376;-65
2022/09/13 13:18:33;;;;;;;5.55;1.90;;;27.10;1.00;;;;;;7358580;19;20020;-64
2022/09/13 13:21:26;;;;;;;2.97;1.35;;;27.50;1.00;;;;;;7367308;19;20475;-65
2022/09/13 13:24:26;;;;;;;3.05;1.58;;;27.50;1.00;;;;;;7367152;19;20020;-65
2022/09/13 13:26:58;;;;;;;1.90;1.08;;;27.50;1.00;;;;;;7362126;19;20020;-65
2022/09/13 13:29:29;;;;;;;4.95;1.58;;;27.70;1.00;;;;;;7379289;19;20062;-65
2022/09/13 13:32:14;;;;;;;4.70;1.27;;;27.80;1.00;;;;;;7366124;19;20324;-64
2022/09/13 13:34:48;;;;;;;1.67;0.98;;;27.70;1.00;;;;;;7361248;19;20103;-64
2022/09/13 13:37:33;;;;;;;2.25;1.00;;;27.90;1.00;;;;;;7359103;19;20079;-65
2022/09/13 13:40:24;;;;;;;1.00;0.60;;;27.80;1.00;;;;;;7360746;19;20017;-65
2022/09/13 13:43:32;;;;;;;2.05;0.70;;;28.00;1.00;;;;;;7366739;19;20650;-65